Time;durP1;ratioP1;P1;durP2;ratioP2;P2;SDS_P1;SDS_P2;PMS_P1;PMS_P2;Temp;Humidity;BMP_temperature;BMP_pressure;BME280_temperature;BME280_humidity;BME280_pressure;Samples;Min_cycle;Max_cycle;Signal;HPM_P1;HPM_P2
2021/07/27 00:00:37;;;;;;;2.37;2.07;;;16.80;99.90;;;;;;5030245;28;20175;-64
2021/07/27 00:03:03;;;;;;;4.73;2.30;;;16.70;99.90;;;;;;5016362;28;20285;-64
2021/07/27 00:05:32;;;;;;;5.30;2.33;;;16.70;99.90;;;;;;5016389;28;20392;-65
2021/07/27 00:07:58;;;;;;;5.50;3.33;;;16.60;99.90;;;;;;5015946;28;20508;-64
2021/07/27 00:10:24;;;;;;;4.17;3.80;;;16.60;99.90;;;;;;5016397;28;20791;-63
2021/07/27 00:12:50;;;;;;;3.83;3.40;;;16.60;99.90;;;;;;5016431;28;20188;-63
2021/07/27 00:15:15;;;;;;;2.70;2.50;;;16.50;99.90;;;;;;5021072;28;20902;-64
2021/07/27 00:17:41;;;;;;;3.07;2.77;;;16.60;99.90;;;;;;5035240;28;20192;-64
2021/07/27 00:20:08;;;;;;;3.50;2.90;;;16.50;99.90;;;;;;5036181;28;20188;-64
2021/07/27 00:22:33;;;;;;;2.60;2.40;;;16.50;99.90;;;;;;5035890;28;20311;-64
2021/07/27 00:24:59;;;;;;;3.23;2.63;;;16.50;99.90;;;;;;5035677;28;20834;-64
2021/07/27 00:27:25;;;;;;;2.70;2.50;;;16.40;99.90;;;;;;5035595;28;20174;-64
2021/07/27 00:29:50;;;;;;;3.10;2.37;;;16.40;99.90;;;;;;5031703;28;20198;-62
2021/07/27 00:32:16;;;;;;;4.20;2.57;;;16.40;99.90;;;;;;5016051;28;20884;-64
2021/07/27 00:34:42;;;;;;;2.47;2.10;;;16.40;99.90;;;;;;5016055;28;20183;-62
2021/07/27 00:37:17;;;;;;;3.30;3.00;;;16.30;99.90;;;;;;5015606;28;20240;-65
2021/07/27 00:39:43;;;;;;;1.97;1.87;;;16.20;99.90;;;;;;5015639;28;20202;-64
2021/07/27 00:42:11;;;;;;;3.20;2.60;;;16.20;99.90;;;;;;5015828;28;20446;-64
2021/07/27 00:44:36;;;;;;;2.80;2.33;;;16.20;99.90;;;;;;5015837;28;20409;-63
2021/07/27 00:47:02;;;;;;;2.57;2.37;;;16.10;99.90;;;;;;5015403;28;20404;-63
2021/07/27 00:49:28;;;;;;;2.03;1.93;;;16.10;99.90;;;;;;5015622;28;20196;-64
2021/07/27 00:51:54;;;;;;;2.50;2.30;;;16.10;99.90;;;;;;5015615;28;20417;-63
2021/07/27 00:54:20;;;;;;;2.17;2.07;;;16.10;99.90;;;;;;5029935;28;20432;-64
2021/07/27 00:56:46;;;;;;;2.67;2.47;;;16.00;99.90;;;;;;5034978;28;20231;-65
2021/07/27 00:59:12;;;;;;;6.17;2.70;;;16.00;99.90;;;;;;5035165;28;20431;-63
2021/07/27 01:01:38;;;;;;;2.93;2.30;;;15.90;99.90;;;;;;5035177;28;20406;-63
2021/07/27 01:04:03;;;;;;;2.43;2.23;;;15.90;99.90;;;;;;5035087;28;20646;-64
2021/07/27 01:06:30;;;;;;;2.97;2.77;;;15.90;99.90;;;;;;5034737;28;20169;-65
2021/07/27 01:08:56;;;;;;;3.10;2.63;;;15.90;99.90;;;;;;5021035;28;20525;-63
2021/07/27 01:11:25;;;;;;;3.80;2.77;;;16.00;99.90;;;;;;5015110;28;20449;-63
2021/07/27 01:13:52;;;;;;;3.77;2.67;;;16.00;99.90;;;;;;5015245;28;20413;-64
2021/07/27 01:16:20;;;;;;;5.60;3.20;;;16.10;99.90;;;;;;5015179;28;20417;-63
2021/07/27 01:18:59;;;;;;;4.77;4.07;;;16.10;99.90;;;;;;5014704;28;20438;-63
2021/07/27 01:43:21;;;;;;;2.60;2.40;;;15.70;99.90;;;;;;5014627;28;20460;-64
2021/07/27 01:45:47;;;;;;;5.90;2.30;;;15.70;99.90;;;;;;5014511;28;20417;-63
2021/07/27 01:48:15;;;;;;;4.20;2.87;;;15.50;99.90;;;;;;5012779;28;20787;-63
2021/07/27 01:50:40;;;;;;;2.57;2.17;;;15.50;99.90;;;;;;5014908;28;20440;-64
2021/07/27 01:53:06;;;;;;;1.93;1.83;;;15.40;99.90;;;;;;5014396;28;20405;-63
2021/07/27 01:55:35;;;;;;;2.80;2.20;;;15.40;99.90;;;;;;5014457;28;20181;-63
2021/07/27 01:58:04;;;;;;;3.40;2.90;;;15.30;99.90;;;;;;5013947;28;20197;-64
2021/07/27 02:00:31;;;;;;;2.77;2.57;;;15.30;99.90;;;;;;5014482;28;20465;-63
2021/07/27 02:02:56;;;;;;;2.57;2.37;;;15.30;99.90;;;;;;5026818;28;20471;-63
2021/07/27 02:05:22;;;;;;;3.80;2.07;;;15.30;99.90;;;;;;5033943;28;20925;-63
2021/07/27 02:07:55;;;;;;;3.00;2.80;;;15.30;99.90;;;;;;5033426;28;20227;-64
2021/07/27 02:10:21;;;;;;;3.30;3.00;;;15.30;99.90;;;;;;5034240;28;20224;-65
2021/07/27 02:12:51;;;;;;;3.10;2.47;;;15.20;99.90;;;;;;5033926;28;20435;-63
2021/07/27 02:15:19;;;;;;;3.53;3.23;;;15.20;99.90;;;;;;5033652;28;20972;-63
2021/07/27 02:17:45;;;;;;;3.97;3.60;;;15.20;99.90;;;;;;5032423;28;20430;-63
2021/07/27 02:20:11;;;;;;;3.20;2.47;;;15.30;99.90;;;;;;5033842;28;20420;-64
2021/07/27 02:22:37;;;;;;;2.40;2.20;;;15.30;99.90;;;;;;5033763;28;20471;-63
2021/07/27 02:25:03;;;;;;;3.20;2.90;;;15.30;99.90;;;;;;5033599;28;20805;-63
2021/07/27 02:27:29;;;;;;;4.73;2.70;;;15.30;99.90;;;;;;5033281;28;20173;-64
2021/07/27 02:29:55;;;;;;;4.43;2.93;;;15.40;99.90;;;;;;5033514;28;20454;-64
2021/07/27 02:32:20;;;;;;;4.33;3.37;;;15.50;99.90;;;;;;5019597;28;20269;-65
2021/07/27 02:34:46;;;;;;;4.20;2.87;;;15.50;99.90;;;;;;5012569;28;20193;-63
2021/07/27 02:37:13;;;;;;;3.83;3.53;;;15.50;99.90;;;;;;5013480;28;20191;-63
2021/07/27 02:39:39;;;;;;;4.17;3.77;;;15.50;99.90;;;;;;5013745;28;20202;-64
2021/07/27 02:42:04;;;;;;;5.50;4.03;;;15.50;99.90;;;;;;5013635;28;20464;-63
2021/07/27 02:44:30;;;;;;;5.53;3.90;;;15.60;99.90;;;;;;5013774;28;20174;-64
2021/07/27 02:46:56;;;;;;;5.53;4.20;;;15.60;99.90;;;;;;5013247;28;20178;-64
2021/07/27 02:49:21;;;;;;;5.13;4.23;;;15.60;99.90;;;;;;5013660;28;20202;-65
2021/07/27 02:51:49;;;;;;;3.57;3.27;;;15.50;99.90;;;;;;5013678;28;20627;-64
2021/07/27 02:54:15;;;;;;;4.67;4.30;;;15.40;99.90;;;;;;5013614;28;20188;-64
2021/07/27 02:56:40;;;;;;;4.30;3.30;;;15.40;99.90;;;;;;5013472;28;20425;-64
2021/07/27 02:59:06;;;;;;;3.60;3.30;;;15.40;99.90;;;;;;5013417;28;20456;-63
2021/07/27 03:01:32;;;;;;;4.63;3.23;;;15.40;99.90;;;;;;5024293;28;20653;-63
2021/07/27 03:03:57;;;;;;;3.53;3.13;;;15.30;99.90;;;;;;5032842;28;20205;-64
2021/07/27 03:06:23;;;;;;;6.80;3.97;;;15.30;99.90;;;;;;5028539;28;20265;-63
2021/07/27 03:09:02;;;;;;;3.73;3.10;;;15.30;99.90;;;;;;5012941;28;20285;-64
2021/07/27 03:11:29;;;;;;;4.27;3.30;;;15.30;99.90;;;;;;5013617;28;20169;-64
2021/07/27 03:13:55;;;;;;;4.77;3.43;;;15.30;99.90;;;;;;5013560;28;20467;-63
2021/07/27 03:16:23;;;;;;;4.20;3.80;;;15.30;99.90;;;;;;5013568;28;20416;-64
2021/07/27 03:18:51;;;;;;;6.20;4.93;;;15.30;99.90;;;;;;5013130;28;20229;-65
2021/07/27 03:21:21;;;;;;;4.37;4.00;;;15.30;99.90;;;;;;5024171;28;20432;-63
2021/07/27 03:23:48;;;;;;;3.70;3.40;;;15.30;99.90;;;;;;5033153;28;20968;-64
2021/07/27 03:26:14;;;;;;;4.27;3.80;;;15.30;99.90;;;;;;5033109;28;20483;-63
2021/07/27 03:28:40;;;;;;;3.67;3.37;;;15.30;99.90;;;;;;5021350;28;20842;-63
2021/07/27 03:31:06;;;;;;;4.33;4.03;;;15.30;99.90;;;;;;5017069;28;20436;-63
2021/07/27 03:33:32;;;;;;;3.23;2.97;;;15.30;99.90;;;;;;5017045;28;20413;-63
2021/07/27 03:35:58;;;;;;;2.83;2.63;;;15.30;99.90;;;;;;5017005;28;20420;-64
2021/07/27 03:38:23;;;;;;;4.50;3.67;;;15.30;99.90;;;;;;5016436;28;20276;-63
2021/07/27 03:40:49;;;;;;;4.23;3.43;;;15.30;99.90;;;;;;5026109;28;20643;-64
2021/07/27 03:43:15;;;;;;;5.70;4.00;;;15.30;99.90;;;;;;5036666;28;20208;-64
2021/07/27 03:45:41;;;;;;;3.03;2.83;;;15.30;99.90;;;;;;5036509;28;20182;-64
2021/07/27 03:48:07;;;;;;;3.80;3.40;;;15.30;99.90;;;;;;5036081;28;20431;-63
2021/07/27 03:50:32;;;;;;;4.27;3.87;;;15.40;99.90;;;;;;5036787;28;20658;-63
2021/07/27 03:52:58;;;;;;;4.93;3.80;;;15.40;99.90;;;;;;5036719;28;20482;-64
2021/07/27 03:55:24;;;;;;;3.67;3.30;;;15.40;99.90;;;;;;5026862;28;20188;-64
2021/07/27 03:57:55;;;;;;;4.43;4.03;;;15.30;99.90;;;;;;5016301;28;20201;-64
2021/07/27 04:00:24;;;;;;;3.63;3.33;;;15.30;99.90;;;;;;5016483;28;20668;-64
2021/07/27 04:02:50;;;;;;;3.60;3.30;;;15.30;99.90;;;;;;5016453;28;20449;-63
2021/07/27 04:05:15;;;;;;;3.37;3.07;;;15.20;99.90;;;;;;5016579;28;20402;-65
2021/07/27 04:07:44;;;;;;;3.10;2.90;;;15.20;99.90;;;;;;5015956;28;20181;-64
2021/07/27 04:10:09;;;;;;;3.80;3.37;;;15.20;99.90;;;;;;5024133;28;20177;-64
2021/07/27 04:12:35;;;;;;;6.53;3.30;;;15.20;99.90;;;;;;5036259;28;20502;-63
2021/07/27 04:15:01;;;;;;;3.30;3.10;;;15.10;99.90;;;;;;5036057;28;20423;-63
2021/07/27 04:17:27;;;;;;;7.60;4.00;;;15.10;99.90;;;;;;5035574;28;20180;-63
2021/07/27 04:19:53;;;;;;;4.43;3.60;;;15.10;99.90;;;;;;5036050;28;20280;-63
2021/07/27 04:22:19;;;;;;;4.90;4.10;;;15.10;99.90;;;;;;5035665;28;20209;-64
2021/07/27 04:24:45;;;;;;;4.40;3.80;;;15.10;99.90;;;;;;5028683;28;20475;-64
2021/07/27 04:27:10;;;;;;;6.60;4.03;;;15.10;99.90;;;;;;5015750;28;20568;-64
2021/07/27 04:29:36;;;;;;;4.07;3.20;;;15.10;99.90;;;;;;5015676;28;20547;-64
2021/07/27 04:32:02;;;;;;;3.73;3.43;;;15.20;99.90;;;;;;5025382;28;20208;-65
2021/07/27 04:34:27;;;;;;;3.87;3.07;;;15.20;99.90;;;;;;5035552;28;20263;-64
2021/07/27 04:36:53;;;;;;;3.20;2.40;;;15.20;99.90;;;;;;5035326;28;20184;-65
2021/07/27 04:39:18;;;;;;;8.00;2.53;;;15.30;99.90;;;;;;5034604;28;20256;-64
2021/07/27 04:41:44;;;;;;;3.23;2.90;;;15.30;99.90;;;;;;5035373;28;20591;-65
2021/07/27 04:44:09;;;;;;;4.20;3.77;;;15.40;99.90;;;;;;5035534;28;20169;-65
2021/07/27 04:46:35;;;;;;;4.10;3.50;;;15.50;99.90;;;;;;5034681;28;20178;-65
2021/07/27 04:49:01;;;;;;;4.10;3.63;;;15.70;99.90;;;;;;5035536;28;20227;-64
2021/07/27 04:51:28;;;;;;;7.33;3.57;;;15.70;99.90;;;;;;5035205;28;20184;-64
2021/07/27 04:53:58;;;;;;;3.40;3.10;;;15.80;99.90;;;;;;5035515;28;20182;-64
2021/07/27 04:56:27;;;;;;;3.83;3.57;;;15.90;99.90;;;;;;5032979;28;20420;-64
2021/07/27 04:58:53;;;;;;;4.80;3.63;;;16.10;99.90;;;;;;5009161;28;20448;-64
2021/07/27 05:01:19;;;;;;;3.23;2.93;;;16.30;99.90;;;;;;5021541;28;20413;-64
2021/07/27 05:03:44;;;;;;;3.70;3.40;;;16.50;99.90;;;;;;5035154;28;20206;-65
2021/07/27 05:06:10;;;;;;;4.60;3.90;;;16.70;99.90;;;;;;5034978;28;20166;-65
2021/07/27 05:08:36;;;;;;;4.07;3.57;;;16.80;99.90;;;;;;5034359;28;20284;-65
2021/07/27 05:11:02;;;;;;;4.07;3.70;;;17.00;99.90;;;;;;5034933;28;20176;-64
2021/07/27 05:13:28;;;;;;;4.97;3.37;;;17.10;99.90;;;;;;5034994;28;20271;-64
2021/07/27 05:15:54;;;;;;;6.33;2.80;;;17.10;99.90;;;;;;5033748;28;20563;-65
2021/07/27 05:18:20;;;;;;;4.17;3.80;;;17.20;99.90;;;;;;5014399;28;20195;-64
2021/07/27 05:20:46;;;;;;;3.57;2.90;;;17.30;99.90;;;;;;5014923;28;20396;-64
2021/07/27 05:23:11;;;;;;;4.07;3.50;;;17.40;99.90;;;;;;5014737;28;20207;-63
2021/07/27 05:25:39;;;;;;;3.37;3.00;;;17.50;99.90;;;;;;5014794;28;20406;-65
2021/07/27 05:28:07;;;;;;;3.47;2.93;;;17.60;99.90;;;;;;5014364;28;20252;-64
2021/07/27 05:30:32;;;;;;;3.70;3.30;;;17.70;99.90;;;;;;5019506;28;20507;-65
2021/07/27 05:33:01;;;;;;;4.53;2.73;;;17.80;99.90;;;;;;5034193;28;20509;-63
2021/07/27 05:35:27;;;;;;;2.67;2.47;;;17.90;99.90;;;;;;5034691;28;20168;-63
2021/07/27 05:37:53;;;;;;;2.43;2.23;;;18.00;99.90;;;;;;5034247;28;20461;-64
2021/07/27 05:40:18;;;;;;;3.30;2.60;;;18.10;99.90;;;;;;5034443;28;20215;-64
2021/07/27 05:42:44;;;;;;;3.00;2.00;;;18.20;99.90;;;;;;5018462;28;20312;-64
2021/07/27 05:45:10;;;;;;;3.10;2.40;;;18.30;99.90;;;;;;5014468;28;20168;-64
2021/07/27 05:47:36;;;;;;;4.73;2.77;;;18.50;99.90;;;;;;5013053;28;20640;-65
2021/07/27 05:50:03;;;;;;;3.43;3.23;;;18.60;99.90;;;;;;5014290;28;20417;-64
2021/07/27 05:52:29;;;;;;;4.53;2.57;;;18.70;99.90;;;;;;5013322;28;20204;-67
2021/07/27 05:54:54;;;;;;;2.60;2.40;;;18.90;99.90;;;;;;5014167;28;20414;-66
2021/07/27 05:57:20;;;;;;;3.20;2.90;;;18.90;99.90;;;;;;5018154;28;20174;-66
2021/07/27 05:59:46;;;;;;;3.03;2.83;;;19.00;99.90;;;;;;5032666;28;20591;-68
2021/07/27 06:02:12;;;;;;;3.00;2.73;;;19.10;99.90;;;;;;5033906;28;20205;-70
2021/07/27 06:04:38;;;;;;;4.33;2.60;;;19.20;99.90;;;;;;5033715;28;20510;-70
2021/07/27 06:07:04;;;;;;;8.67;3.77;;;19.30;99.90;;;;;;5033351;28;20410;-68
2021/07/27 06:09:29;;;;;;;3.03;2.73;;;19.40;99.90;;;;;;5033708;28;20496;-68
2021/07/27 06:11:55;;;;;;;2.53;2.33;;;19.50;99.90;;;;;;5020720;28;20914;-69
2021/07/27 06:14:21;;;;;;;3.00;2.80;;;19.60;99.90;;;;;;5014012;28;20249;-68
2021/07/27 06:16:46;;;;;;;3.57;2.33;;;19.70;99.90;;;;;;5012120;28;20350;-73
2021/07/27 06:19:12;;;;;;;2.93;2.60;;;19.80;99.90;;;;;;5006896;28;20281;-68
2021/07/27 06:21:39;;;;;;;3.83;2.87;;;19.90;99.90;;;;;;5006870;28;20183;-69
2021/07/27 06:24:08;;;;;;;2.63;2.43;;;20.00;99.90;;;;;;5008009;28;20231;-73
2021/07/27 06:26:35;;;;;;;2.57;2.17;;;20.20;99.90;;;;;;5010379;28;20421;-71
2021/07/27 06:29:02;;;;;;;3.57;2.77;;;20.40;99.90;;;;;;5009857;28;20843;-66
2021/07/27 06:31:28;;;;;;;4.27;3.33;;;20.60;99.90;;;;;;5009525;28;20426;-68
2021/07/27 06:33:54;;;;;;;2.87;2.67;;;20.70;99.90;;;;;;5010193;28;20513;-66
2021/07/27 06:36:19;;;;;;;3.00;2.53;;;20.90;99.90;;;;;;4996372;28;20186;-70
2021/07/27 06:38:45;;;;;;;2.60;2.40;;;21.20;99.90;;;;;;5006066;28;20203;-66
2021/07/27 06:41:12;;;;;;;2.70;2.50;;;21.50;99.90;;;;;;5009629;28;20186;-66
2021/07/27 06:43:40;;;;;;;2.83;2.50;;;21.80;99.90;;;;;;5010204;28;20565;-67
2021/07/27 06:46:07;;;;;;;5.70;3.60;;;22.00;99.90;;;;;;5009284;28;20792;-64
2021/07/27 06:48:33;;;;;;;3.00;2.77;;;22.20;99.90;;;;;;5006586;28;20512;-67
2021/07/27 06:51:06;;;;;;;3.07;2.50;;;22.20;99.90;;;;;;5010337;28;20424;-66
2021/07/27 06:53:32;;;;;;;3.60;2.67;;;22.30;99.90;;;;;;5010390;28;20411;-67
2021/07/27 06:55:57;;;;;;;3.10;2.20;;;22.20;99.90;;;;;;5010945;28;20440;-68
2021/07/27 06:58:23;;;;;;;2.33;2.20;;;22.10;99.90;;;;;;5009832;28;20215;-66
2021/07/27 07:00:49;;;;;;;3.43;2.97;;;21.90;99.90;;;;;;5010162;28;20180;-66
2021/07/27 07:03:14;;;;;;;3.37;2.90;;;21.90;99.90;;;;;;5014581;28;20674;-64
2021/07/27 07:05:42;;;;;;;2.87;2.60;;;21.90;99.90;;;;;;5017357;28;20167;-65
2021/07/27 07:08:08;;;;;;;3.20;3.00;;;21.90;99.90;;;;;;5019398;28;20538;-65
2021/07/27 07:10:34;;;;;;;3.40;3.10;;;22.00;99.90;;;;;;5016978;28;20422;-67
2021/07/27 07:12:59;;;;;;;3.70;2.40;;;22.10;99.90;;;;;;5017277;28;20523;-69
2021/07/27 07:15:25;;;;;;;3.80;3.50;;;22.20;99.90;;;;;;5011309;28;20682;-68
2021/07/27 07:17:51;;;;;;;3.43;3.13;;;22.30;99.90;;;;;;5013790;28;20253;-64
2021/07/27 07:20:16;;;;;;;3.20;2.67;;;22.30;99.90;;;;;;5016454;28;20246;-63
2021/07/27 07:22:42;;;;;;;2.73;2.33;;;22.50;99.90;;;;;;5025228;28;20198;-64
2021/07/27 07:25:08;;;;;;;2.40;2.20;;;22.70;99.90;;;;;;5031406;28;20698;-63
2021/07/27 07:27:34;;;;;;;2.70;2.50;;;23.00;99.90;;;;;;5012485;28;20477;-62
2021/07/27 07:30:00;;;;;;;3.00;2.70;;;23.20;99.90;;;;;;5014080;28;20225;-63
2021/07/27 07:32:26;;;;;;;7.27;3.10;;;23.30;99.90;;;;;;5013015;28;20186;-63
2021/07/27 07:34:51;;;;;;;2.83;2.63;;;23.50;99.90;;;;;;5011380;28;20182;-64
2021/07/27 07:37:17;;;;;;;3.97;2.90;;;23.70;99.90;;;;;;5009517;28;20938;-63
2021/07/27 07:39:43;;;;;;;3.00;2.40;;;24.00;99.90;;;;;;5015299;28;20199;-64
2021/07/27 07:42:09;;;;;;;6.77;3.43;;;24.50;99.90;;;;;;5012931;28;20265;-66
2021/07/27 07:44:35;;;;;;;2.93;2.67;;;24.80;99.90;;;;;;5012938;28;20220;-64
2021/07/27 07:47:02;;;;;;;3.23;2.40;;;24.80;99.90;;;;;;5013030;28;20179;-64
2021/07/27 07:49:28;;;;;;;3.30;2.97;;;24.80;99.90;;;;;;5011209;28;20415;-65
2021/07/27 07:51:56;;;;;;;4.17;3.20;;;25.10;99.90;;;;;;5013000;28;20384;-64
2021/07/27 07:54:24;;;;;;;2.60;2.40;;;25.60;99.90;;;;;;5015102;28;20404;-64
2021/07/27 07:56:50;;;;;;;2.50;2.30;;;26.60;99.90;;;;;;5014943;28;20380;-65
2021/07/27 07:59:16;;;;;;;2.70;2.50;;;27.70;99.90;;;;;;5013910;28;20419;-66
2021/07/27 08:01:45;;;;;;;2.87;2.67;;;29.20;97.90;;;;;;5020335;28;20889;-66
2021/07/27 08:04:11;;;;;;;3.10;2.80;;;30.00;94.90;;;;;;5025116;28;20577;-65
2021/07/27 08:06:37;;;;;;;3.33;3.03;;;30.90;93.50;;;;;;5012634;28;20486;-65
2021/07/27 08:09:03;;;;;;;3.00;2.70;;;31.70;92.20;;;;;;5013523;28;20430;-66
2021/07/27 08:11:29;;;;;;;4.60;2.83;;;32.40;90.70;;;;;;5011070;28;20972;-66
2021/07/27 08:13:57;;;;;;;4.17;2.80;;;32.90;88.50;;;;;;5011947;28;20246;-65
2021/07/27 08:16:22;;;;;;;3.53;3.27;;;33.20;87.40;;;;;;5013095;28;20167;-66
2021/07/27 08:18:48;;;;;;;3.60;3.30;;;33.40;86.40;;;;;;5014128;28;20517;-67
2021/07/27 08:21:14;;;;;;;3.13;2.90;;;33.60;83.50;;;;;;5011626;28;20248;-68
2021/07/27 08:23:44;;;;;;;2.60;2.40;;;33.50;83.20;;;;;;5012851;28;20848;-66
2021/07/27 08:26:11;;;;;;;2.97;2.77;;;33.50;83.50;;;;;;5014394;28;20467;-66
2021/07/27 08:28:37;;;;;;;4.83;3.10;;;33.50;81.20;;;;;;5013520;28;20978;-66
2021/07/27 08:31:02;;;;;;;3.67;3.37;;;33.20;80.70;;;;;;5014494;28;20465;-66
2021/07/27 08:33:28;;;;;;;4.40;4.00;;;32.70;81.00;;;;;;5014845;28;20218;-66
2021/07/27 08:35:54;;;;;;;3.03;2.83;;;32.30;82.00;;;;;;5013371;28;20541;-65
2021/07/27 08:38:19;;;;;;;3.60;3.30;;;31.80;83.30;;;;;;5014890;28;20221;-65
2021/07/27 08:40:49;;;;;;;4.87;3.37;;;31.60;83.60;;;;;;5015423;28;20225;-65
2021/07/27 08:43:17;;;;;;;3.27;3.07;;;31.40;84.50;;;;;;5013605;28;20780;-65
2021/07/27 08:45:46;;;;;;;3.23;3.00;;;31.70;84.60;;;;;;5013147;28;20739;-65
2021/07/27 08:48:13;;;;;;;2.87;2.67;;;31.80;84.50;;;;;;5011903;28;20480;-65
2021/07/27 08:50:41;;;;;;;3.33;3.03;;;31.80;83.00;;;;;;5012321;28;20380;-64
2021/07/27 08:53:06;;;;;;;3.37;3.07;;;31.70;82.30;;;;;;5017014;28;20425;-64
2021/07/27 08:55:32;;;;;;;2.93;2.73;;;31.30;82.20;;;;;;5010892;28;21314;-64
2021/07/27 08:57:59;;;;;;;3.30;3.00;;;31.10;83.00;;;;;;5011704;28;20224;-64
2021/07/27 09:00:26;;;;;;;3.00;2.80;;;31.00;82.50;;;;;;5011964;28;20660;-64
2021/07/27 09:02:52;;;;;;;3.90;3.60;;;31.20;83.20;;;;;;5012511;28;20481;-65
2021/07/27 09:05:18;;;;;;;2.60;2.40;;;31.70;81.50;;;;;;5010506;28;20452;-65
2021/07/27 09:07:44;;;;;;;3.90;2.90;;;32.10;79.10;;;;;;5018115;28;20553;-65
2021/07/27 09:10:14;;;;;;;3.40;3.10;;;32.80;77.90;;;;;;5034932;28;20929;-64
2021/07/27 09:12:54;;;;;;;4.17;3.07;;;33.40;74.70;;;;;;5030366;28;20734;-65
2021/07/27 09:15:21;;;;;;;4.47;4.07;;;33.70;74.00;;;;;;5005641;28;20406;-65
2021/07/27 09:17:55;;;;;;;6.00;3.10;;;33.80;75.70;;;;;;5003523;28;20491;-64
2021/07/27 09:20:48;;;;;;;3.37;3.17;;;33.80;74.10;;;;;;5007942;28;20410;-67
2021/07/27 09:23:19;;;;;;;3.23;2.97;;;34.00;75.00;;;;;;5009896;28;20476;-67
2021/07/27 09:25:50;;;;;;;3.20;3.00;;;34.30;72.20;;;;;;5010058;28;20463;-65
2021/07/27 09:28:17;;;;;;;3.30;3.00;;;34.90;69.80;;;;;;5009091;28;20455;-68
2021/07/27 09:30:44;;;;;;;3.40;3.10;;;35.50;69.70;;;;;;5006214;28;20520;-65
2021/07/27 09:33:11;;;;;;;3.00;2.80;;;36.00;67.80;;;;;;5011314;28;20417;-65
2021/07/27 09:35:38;;;;;;;2.93;2.73;;;36.40;67.80;;;;;;5012575;28;20461;-66
2021/07/27 09:38:08;;;;;;;3.90;3.60;;;36.80;65.50;;;;;;5013206;28;20438;-66
2021/07/27 09:41:00;;;;;;;3.30;3.00;;;37.10;64.30;;;;;;5009409;28;20413;-65
2021/07/27 09:43:27;;;;;;;4.50;4.10;;;36.90;62.70;;;;;;4994629;28;20461;-66
2021/07/27 09:45:55;;;;;;;3.83;3.10;;;36.50;63.70;;;;;;5001188;28;20746;-65
2021/07/27 09:48:22;;;;;;;3.73;3.43;;;36.30;62.60;;;;;;5013544;28;20434;-66
2021/07/27 09:50:53;;;;;;;3.33;3.03;;;36.40;61.80;;;;;;5012690;28;20417;-67
2021/07/27 09:53:20;;;;;;;4.13;3.67;;;36.70;63.40;;;;;;5013457;28;20761;-69
2021/07/27 09:55:46;;;;;;;3.80;3.60;;;36.90;61.60;;;;;;5009667;28;20769;-66
2021/07/27 09:58:12;;;;;;;3.73;3.43;;;37.10;61.70;;;;;;5010433;28;20438;-65
2021/07/27 10:00:55;;;;;;;3.83;3.63;;;37.50;60.80;;;;;;5012839;28;20417;-65
2021/07/27 10:03:58;;;;;;;3.63;3.33;;;37.90;59.30;;;;;;5012372;28;20462;-65
2021/07/27 10:06:30;;;;;;;3.80;3.60;;;38.40;58.10;;;;;;5014313;28;20758;-65
2021/07/27 10:09:01;;;;;;;3.40;3.20;;;39.30;57.30;;;;;;5013901;28;20425;-65
2021/07/27 10:11:44;;;;;;;4.37;3.90;;;39.30;56.50;;;;;;5004601;28;20564;-64
2021/07/27 10:14:15;;;;;;;4.03;3.73;;;38.80;55.70;;;;;;4994770;28;20828;-65
2021/07/27 10:16:42;;;;;;;3.83;3.63;;;38.30;56.00;;;;;;5009413;28;21131;-65
2021/07/27 10:19:19;;;;;;;4.43;4.07;;;38.20;57.90;;;;;;4994236;28;20443;-64
2021/07/27 10:22:00;;;;;;;3.70;3.40;;;38.10;57.50;;;;;;4994248;28;20464;-65
2021/07/27 10:24:35;;;;;;;6.67;6.17;;;38.30;57.10;;;;;;4994442;28;20745;-64
2021/07/27 10:27:24;;;;;;;3.63;3.37;;;38.40;56.20;;;;;;4993701;28;20846;-67
2021/07/27 10:29:51;;;;;;;3.30;3.10;;;37.90;54.70;;;;;;5002023;28;20445;-68
2021/07/27 10:32:19;;;;;;;3.53;3.23;;;37.10;56.90;;;;;;5012501;28;20549;-68
2021/07/27 10:34:45;;;;;;;3.20;3.00;;;36.20;56.60;;;;;;5014054;28;20920;-68
2021/07/27 10:37:14;;;;;;;3.83;3.03;;;35.40;57.80;;;;;;5011435;28;20734;-68
2021/07/27 10:39:55;;;;;;;3.80;3.50;;;34.90;57.30;;;;;;5013548;28;20436;-68
2021/07/27 10:42:22;;;;;;;3.77;2.83;;;34.60;59.10;;;;;;5013692;28;20414;-66
2021/07/27 10:44:49;;;;;;;2.83;2.63;;;34.50;61.00;;;;;;5013861;28;20396;-69
2021/07/27 10:47:22;;;;;;;3.20;2.90;;;34.80;59.90;;;;;;5013205;28;20410;-66
2021/07/27 10:50:07;;;;;;;2.83;2.63;;;35.10;58.70;;;;;;5009331;28;20474;-67
2021/07/27 10:52:33;;;;;;;4.60;4.27;;;35.10;57.40;;;;;;5016314;28;20443;-63
2021/07/27 10:55:00;;;;;;;3.90;3.60;;;35.30;57.60;;;;;;5001972;28;20392;-66
2021/07/27 10:57:35;;;;;;;4.40;4.00;;;35.30;58.60;;;;;;5002800;28;20381;-68
2021/07/27 11:00:03;;;;;;;3.17;2.93;;;35.30;59.10;;;;;;5003066;28;20397;-66
2021/07/27 11:02:28;;;;;;;3.47;3.17;;;35.30;58.50;;;;;;5009182;28;20796;-67
2021/07/27 11:04:54;;;;;;;3.30;3.00;;;35.30;59.40;;;;;;5009773;28;20414;-66
2021/07/27 11:07:20;;;;;;;3.63;3.33;;;35.10;58.00;;;;;;5009106;28;20739;-66
2021/07/27 11:09:53;;;;;;;4.00;3.70;;;35.00;59.20;;;;;;5007703;28;20202;-62
2021/07/27 11:12:30;;;;;;;5.33;4.83;;;35.10;59.60;;;;;;5013146;28;20443;-63
2021/07/27 11:15:20;;;;;;;3.57;3.27;;;35.20;58.40;;;;;;5002475;28;20409;-63
2021/07/27 11:17:47;;;;;;;3.40;3.20;;;34.90;58.00;;;;;;5009427;28;20520;-63
2021/07/27 11:20:16;;;;;;;3.83;3.53;;;34.70;58.90;;;;;;5010481;28;20481;-65
2021/07/27 11:22:44;;;;;;;4.47;4.07;;;34.30;60.40;;;;;;5008946;28;20804;-66
2021/07/27 11:25:11;;;;;;;3.10;2.90;;;33.60;58.80;;;;;;5011776;28;20388;-65
2021/07/27 11:27:36;;;;;;;3.03;2.83;;;32.80;59.90;;;;;;5027090;28;20439;-66
2021/07/27 11:30:05;;;;;;;3.30;3.07;;;32.30;62.00;;;;;;5012925;28;20452;-65
2021/07/27 11:32:41;;;;;;;4.73;3.63;;;31.50;63.80;;;;;;5025138;28;20195;-66
2021/07/27 11:35:08;;;;;;;3.40;3.10;;;30.70;66.70;;;;;;5001590;28;20400;-69
2021/07/27 11:37:33;;;;;;;3.50;3.20;;;30.20;68.30;;;;;;5009265;28;20495;-68
2021/07/27 11:39:59;;;;;;;3.90;3.50;;;30.00;70.30;;;;;;5010026;28;20958;-66
2021/07/27 11:42:29;;;;;;;3.60;3.30;;;30.00;71.60;;;;;;5008101;28;20178;-70
2021/07/27 11:44:57;;;;;;;2.77;2.57;;;29.90;68.20;;;;;;5007645;28;20171;-68
2021/07/27 11:47:24;;;;;;;3.03;2.73;;;29.80;68.00;;;;;;5007977;28;20374;-70
2021/07/27 11:49:56;;;;;;;2.90;2.70;;;29.50;68.50;;;;;;5007243;28;20429;-63
2021/07/27 11:52:29;;;;;;;3.43;3.13;;;29.40;70.00;;;;;;5012479;28;20423;-64
2021/07/27 11:55:02;;;;;;;4.43;3.00;;;29.40;71.90;;;;;;5014598;28;20417;-65
2021/07/27 11:57:28;;;;;;;2.87;2.67;;;29.20;71.60;;;;;;5012398;28;20418;-63
2021/07/27 12:00:17;;;;;;;2.60;2.40;;;29.00;69.50;;;;;;5015830;28;20450;-63
2021/07/27 12:02:43;;;;;;;3.30;2.67;;;28.90;71.30;;;;;;5016191;28;20229;-63
2021/07/27 12:05:09;;;;;;;3.97;3.50;;;28.90;72.40;;;;;;5015370;28;20789;-62
2021/07/27 12:07:38;;;;;;;3.77;2.87;;;28.80;72.00;;;;;;5017284;28;20487;-62
2021/07/27 12:10:05;;;;;;;3.10;2.90;;;28.60;72.80;;;;;;5010454;28;20421;-62
2021/07/27 12:12:30;;;;;;;7.80;3.20;;;28.60;73.70;;;;;;5011321;28;20431;-62
2021/07/27 12:14:56;;;;;;;2.80;2.50;;;28.50;74.50;;;;;;5008984;28;20397;-63
2021/07/27 12:17:22;;;;;;;3.20;2.90;;;28.50;76.10;;;;;;5009463;28;20256;-62
2021/07/27 12:19:47;;;;;;;3.57;2.80;;;28.40;74.60;;;;;;5007135;28;20739;-62
2021/07/27 12:22:13;;;;;;;2.47;2.27;;;28.30;74.40;;;;;;5003615;28;20175;-61
2021/07/27 12:24:39;;;;;;;3.07;2.60;;;28.30;75.10;;;;;;5008439;28;20257;-62
2021/07/27 12:27:05;;;;;;;3.13;2.83;;;28.30;75.50;;;;;;5010740;28;20467;-61
2021/07/27 12:29:30;;;;;;;3.73;2.93;;;28.30;74.80;;;;;;5009260;28;20221;-66
2021/07/27 12:31:56;;;;;;;3.57;3.27;;;28.30;74.20;;;;;;5008761;28;20183;-62
2021/07/27 12:34:21;;;;;;;4.83;2.50;;;28.40;73.90;;;;;;5012753;28;20272;-63
2021/07/27 12:36:47;;;;;;;2.83;2.63;;;28.20;75.60;;;;;;5011896;28;20317;-62
2021/07/27 12:39:13;;;;;;;3.07;2.77;;;28.10;76.60;;;;;;5014457;28;20259;-62
2021/07/27 12:41:38;;;;;;;3.47;3.17;;;28.20;76.80;;;;;;5014319;28;20175;-61
2021/07/27 12:44:04;;;;;;;3.20;2.60;;;28.40;76.60;;;;;;5014353;28;20205;-62
2021/07/27 12:46:32;;;;;;;3.40;2.50;;;28.50;72.30;;;;;;5001117;28;20199;-66
2021/07/27 12:48:59;;;;;;;4.07;3.77;;;28.60;72.30;;;;;;5001815;28;20234;-62
2021/07/27 12:51:25;;;;;;;2.77;2.43;;;28.70;71.20;;;;;;5011028;28;20414;-61
2021/07/27 12:53:51;;;;;;;2.50;2.30;;;28.70;71.40;;;;;;5008625;28;20471;-62
2021/07/27 12:56:17;;;;;;;4.30;3.27;;;28.70;71.80;;;;;;5012458;28;20261;-61
2021/07/27 12:58:43;;;;;;;2.53;2.33;;;28.70;73.30;;;;;;5009487;28;20445;-61
2021/07/27 13:01:08;;;;;;;4.27;2.53;;;28.50;71.60;;;;;;5012919;28;20709;-62
2021/07/27 13:03:34;;;;;;;4.23;3.43;;;28.40;72.70;;;;;;5009471;28;20182;-61
2021/07/27 13:06:00;;;;;;;3.03;2.73;;;28.30;70.80;;;;;;5013741;28;20189;-64
2021/07/27 13:08:25;;;;;;;2.83;2.63;;;28.20;73.20;;;;;;5014731;28;20192;-62
2021/07/27 13:10:51;;;;;;;3.10;2.73;;;28.10;72.50;;;;;;5014975;28;20178;-63